Priwall — V2OX8 — position and weather

sailwx.info

Track history (hours):
 
Tides and Currents Weather Stations Pressure Air Temp Water Temp Dewpoint Dewpoint Depression Visibility Wind Speed Wind Dir Waves Ship Positions

Priwall

Last reported at 2016-Jul-21 18:34 UTC. Time now 2016-Jul-23 13:13 UTC.
Position N 54°08' W 005°22'.

Length 88 m; draft 5.5 m.

Type: Ship. MMSI: 304739000.

Date/timePositionNaut miles runAvg speedWind from/ knotsBaromVisibWave heightAir tempDewpointWater temp
2016-Jul-21 18:34N 54°08' W 005°22'9 9.1
2016-Jul-21 17:33N 54°18' W 005°19'9 8.8
2016-Jul-21 16:34N 54°26' W 005°18'8 7.9
2016-Jul-21 15:34N 54°34' W 005°23'7 6.5
2016-Jul-21 14:33N 54°40' W 005°27'5 5.5
2016-Jul-21 13:34N 54°43' W 005°35'9 8.6
2016-Jul-21 12:33N 54°41' W 005°49'4 1.0
2016-Jul-21 08:26N 54°37' W 005°53'0 0.0
2016-Jul-21 01:29N 54°37' W 005°53'0 0.0
2016-Jul-21 00:26N 54°37' W 005°53'0 0.0
2016-Jul-20 23:05N 54°37' W 005°53'0 0.0
2016-Jul-20 22:26N 54°37' W 005°53'0 0.0
2016-Jul-20 21:14N 54°37' W 005°53'0 0.0
2016-Jul-20 15:26N 54°37' W 005°53'0 0.0
2016-Jul-20 14:32N 54°37' W 005°53'0 0.0
2016-Jul-20 13:29N 54°37' W 005°53'0 0.0
2016-Jul-20 12:26N 54°37' W 005°53'0 0.0
2016-Jul-20 11:17N 54°37' W 005°53'0 0.0
2016-Jul-20 10:29N 54°37' W 005°53'0 0.0
2016-Jul-20 08:30N 54°37' W 005°53'0 0.0
2016-Jul-20 07:29N 54°37' W 005°53'0 0.0
2016-Jul-20 05:23N 54°37' W 005°53'0 0.0
2016-Jul-20 04:32N 54°37' W 005°53'0 0.0
2016-Jul-20 03:29N 54°37' W 005°53'0 0.0
2016-Jul-20 02:29N 54°37' W 005°53'0 0.0
2016-Jul-20 01:26N 54°37' W 005°53'0 0.0
2016-Jul-20 00:32N 54°37' W 005°53'0 0.0
2016-Jul-19 23:29N 54°37' W 005°53'0 0.0
2016-Jul-19 22:20N 54°37' W 005°53'0 0.0
2016-Jul-19 21:26N 54°37' W 005°53'0 0.3
2016-Jul-19 20:26N 54°37' W 005°53'8 9.6
2016-Jul-19 19:33N 54°43' W 005°42'4 3.6
2016-Jul-19 18:33N 54°43' W 005°36'7 7.0
2016-Jul-19 17:33N 54°42' W 005°24'10 9.8
2016-Jul-19 16:33N 54°39' W 005°07'1111.3
2016-Jul-19 15:33N 54°36' W 004°49'  
2016-Jul-16 04:28N 54°13' W 004°12'  
Track history (hours):
 
Tides and Currents Weather Stations Pressure Air Temp Water Temp Dewpoint Dewpoint Depression Visibility Wind Speed Wind Dir Waves Ship Positions

Priwall

Last reported at 2016-Jul-21 18:34 UTC. Time now 2016-Jul-23 13:13 UTC.
Position N 54°08' W 005°22'.

Length 88 m; draft 5.5 m.

Type: Ship. MMSI: 304739000.

Date/timePositionNaut miles runAvg speedWind from/ knotsBaromVisibWave heightAir tempDewpointWater temp
2016-Jul-21 18:34N 54°08' W 005°22'9 9.1
2016-Jul-21 17:33N 54°18' W 005°19'9 8.8
2016-Jul-21 16:34N 54°26' W 005°18'8 7.9
2016-Jul-21 15:34N 54°34' W 005°23'7 6.5
2016-Jul-21 14:33N 54°40' W 005°27'5 5.5
2016-Jul-21 13:34N 54°43' W 005°35'9 8.6
2016-Jul-21 12:33N 54°41' W 005°49'4 1.0
2016-Jul-21 08:26N 54°37' W 005°53'0 0.0
2016-Jul-21 01:29N 54°37' W 005°53'0 0.0
2016-Jul-21 00:26N 54°37' W 005°53'0 0.0
2016-Jul-20 23:05N 54°37' W 005°53'0 0.0
2016-Jul-20 22:26N 54°37' W 005°53'0 0.0
2016-Jul-20 21:14N 54°37' W 005°53'0 0.0
2016-Jul-20 15:26N 54°37' W 005°53'0 0.0
2016-Jul-20 14:32N 54°37' W 005°53'0 0.0
2016-Jul-20 13:29N 54°37' W 005°53'0 0.0
2016-Jul-20 12:26N 54°37' W 005°53'0 0.0
2016-Jul-20 11:17N 54°37' W 005°53'0 0.0
2016-Jul-20 10:29N 54°37' W 005°53'0 0.0
2016-Jul-20 08:30N 54°37' W 005°53'0 0.0
2016-Jul-20 07:29N 54°37' W 005°53'0 0.0
2016-Jul-20 05:23N 54°37' W 005°53'0 0.0
2016-Jul-20 04:32N 54°37' W 005°53'0 0.0
2016-Jul-20 03:29N 54°37' W 005°53'0 0.0
2016-Jul-20 02:29N 54°37' W 005°53'0 0.0
2016-Jul-20 01:26N 54°37' W 005°53'0 0.0
2016-Jul-20 00:32N 54°37' W 005°53'0 0.0
2016-Jul-19 23:29N 54°37' W 005°53'0 0.0
2016-Jul-19 22:20N 54°37' W 005°53'0 0.0
2016-Jul-19 21:26N 54°37' W 005°53'0 0.3
2016-Jul-19 20:26N 54°37' W 005°53'8 9.6
2016-Jul-19 19:33N 54°43' W 005°42'4 3.6
2016-Jul-19 18:33N 54°43' W 005°36'7 7.0
2016-Jul-19 17:33N 54°42' W 005°24'10 9.8
2016-Jul-19 16:33N 54°39' W 005°07'1111.3
2016-Jul-19 15:33N 54°36' W 004°49'  
2016-Jul-16 04:28N 54°13' W 004°12'  

Dump ship's entire track history